sensor_id;sensor_type;location;lat;lon;timestamp;pressure;altitude;pressure_sealevel;temperature;humidity
67341;BME280;54227;45.198;5.732;2022-07-23T00:00:55;99034.97;;;27.55;40.22
67341;BME280;54227;45.198;5.732;2022-07-23T00:03:20;99033.03;;;27.52;39.49
67341;BME280;54227;45.198;5.732;2022-07-23T00:05:46;99033.75;;;27.56;39.39
67341;BME280;54227;45.198;5.732;2022-07-23T00:08:11;99040.94;;;27.57;38.19
67341;BME280;54227;45.198;5.732;2022-07-23T00:10:37;99039.00;;;27.54;40.01
67341;BME280;54227;45.198;5.732;2022-07-23T00:13:03;99045.41;;;27.54;39.50
67341;BME280;54227;45.198;5.732;2022-07-23T00:15:28;99051.00;;;27.58;39.27
67341;BME280;54227;45.198;5.732;2022-07-23T00:17:54;99059.41;;;27.58;38.24
67341;BME280;54227;45.198;5.732;2022-07-23T00:20:19;99062.28;;;27.54;39.98
67341;BME280;54227;45.198;5.732;2022-07-23T00:22:46;99055.88;;;27.54;39.27
67341;BME280;54227;45.198;5.732;2022-07-23T00:25:12;99056.97;;;27.60;38.85
67341;BME280;54227;45.198;5.732;2022-07-23T00:27:37;99063.06;;;27.55;37.89
67341;BME280;54227;45.198;5.732;2022-07-23T00:30:03;99064.72;;;27.52;39.95
67341;BME280;54227;45.198;5.732;2022-07-23T00:32:28;99076.31;;;27.54;39.44
67341;BME280;54227;45.198;5.732;2022-07-23T00:34:54;99071.06;;;27.56;39.15
67341;BME280;54227;45.198;5.732;2022-07-23T00:37:19;99077.06;;;27.58;37.64
67341;BME280;54227;45.198;5.732;2022-07-23T00:39:44;99074.78;;;27.50;39.82
67341;BME280;54227;45.198;5.732;2022-07-23T00:42:10;99085.53;;;27.55;39.32
67341;BME280;54227;45.198;5.732;2022-07-23T00:44:35;99093.50;;;27.60;39.12
67341;BME280;54227;45.198;5.732;2022-07-23T00:47:01;99092.81;;;27.52;38.44
67341;BME280;54227;45.198;5.732;2022-07-23T00:49:28;99099.59;;;27.55;39.44
67341;BME280;54227;45.198;5.732;2022-07-23T00:51:54;99097.13;;;27.57;39.08
67341;BME280;54227;45.198;5.732;2022-07-23T00:54:22;99100.69;;;27.61;38.98
67341;BME280;54227;45.198;5.732;2022-07-23T00:56:48;99100.75;;;27.57;38.17
67341;BME280;54227;45.198;5.732;2022-07-23T00:59:13;99100.81;;;27.54;39.60
67341;BME280;54227;45.198;5.732;2022-07-23T01:01:39;99116.00;;;27.56;39.31
67341;BME280;54227;45.198;5.732;2022-07-23T01:04:05;99108.75;;;27.59;39.26
67341;BME280;54227;45.198;5.732;2022-07-23T01:06:34;99103.19;;;27.55;38.16
67341;BME280;54227;45.198;5.732;2022-07-23T01:09:00;99112.81;;;27.58;39.95
67341;BME280;54227;45.198;5.732;2022-07-23T01:11:26;99117.25;;;27.55;39.37
67341;BME280;54227;45.198;5.732;2022-07-23T01:13:51;99124.41;;;27.60;39.39
67341;BME280;54227;45.198;5.732;2022-07-23T01:16:17;99114.38;;;27.59;38.73
67341;BME280;54227;45.198;5.732;2022-07-23T01:18:42;99116.00;;;27.56;39.88
67341;BME280;54227;45.198;5.732;2022-07-23T01:21:10;99104.78;;;27.56;39.21
67341;BME280;54227;45.198;5.732;2022-07-23T01:23:38;99102.72;;;27.60;39.03
67341;BME280;54227;45.198;5.732;2022-07-23T01:26:03;99113.16;;;27.60;39.32
67341;BME280;54227;45.198;5.732;2022-07-23T01:28:29;99116.81;;;27.57;39.84
67341;BME280;54227;45.198;5.732;2022-07-23T01:30:54;99117.59;;;27.57;39.48
67341;BME280;54227;45.198;5.732;2022-07-23T01:33:20;99126.47;;;27.56;39.25
67341;BME280;54227;45.198;5.732;2022-07-23T01:35:45;99117.72;;;27.50;39.87
67341;BME280;54227;45.198;5.732;2022-07-23T01:38:10;99114.63;;;27.45;40.05
67341;BME280;54227;45.198;5.732;2022-07-23T01:40:36;99116.94;;;27.50;39.76
67341;BME280;54227;45.198;5.732;2022-07-23T01:43:01;99109.59;;;27.56;39.22
67341;BME280;54227;45.198;5.732;2022-07-23T01:45:27;99118.03;;;27.56;39.47
67341;BME280;54227;45.198;5.732;2022-07-23T01:47:52;99118.53;;;27.51;40.06
67341;BME280;54227;45.198;5.732;2022-07-23T01:50:18;99109.69;;;27.52;39.49
67341;BME280;54227;45.198;5.732;2022-07-23T01:52:43;99108.75;;;27.59;39.57
67341;BME280;54227;45.198;5.732;2022-07-23T01:55:09;99092.38;;;27.54;39.05
67341;BME280;54227;45.198;5.732;2022-07-23T01:57:34;99093.97;;;27.55;40.02
67341;BME280;54227;45.198;5.732;2022-07-23T02:00:00;99098.00;;;27.54;39.54
67341;BME280;54227;45.198;5.732;2022-07-23T02:02:25;99103.16;;;27.59;39.57
67341;BME280;54227;45.198;5.732;2022-07-23T02:04:51;99111.56;;;27.59;39.45
67341;BME280;54227;45.198;5.732;2022-07-23T02:07:16;99114.88;;;27.54;40.06
67341;BME280;54227;45.198;5.732;2022-07-23T02:09:42;99110.47;;;27.53;39.79
67341;BME280;54227;45.198;5.732;2022-07-23T02:12:07;99105.56;;;27.57;39.36
67341;BME280;54227;45.198;5.732;2022-07-23T02:14:33;99110.41;;;27.56;39.80
67341;BME280;54227;45.198;5.732;2022-07-23T02:16:58;99106.44;;;27.54;40.16
67341;BME280;54227;45.198;5.732;2022-07-23T02:19:24;99108.81;;;27.55;39.83
67341;BME280;54227;45.198;5.732;2022-07-23T02:21:50;99115.97;;;27.60;39.71
67341;BME280;54227;45.198;5.732;2022-07-23T02:24:16;99106.78;;;27.56;39.78
67341;BME280;54227;45.198;5.732;2022-07-23T02:26:41;99097.66;;;27.52;40.38
67341;BME280;54227;45.198;5.732;2022-07-23T02:29:07;99098.38;;;27.56;40.07
67341;BME280;54227;45.198;5.732;2022-07-23T02:31:33;99097.13;;;27.57;39.95
67341;BME280;54227;45.198;5.732;2022-07-23T02:33:59;99108.09;;;27.51;40.78
67341;BME280;54227;45.198;5.732;2022-07-23T02:36:25;99128.16;;;27.50;40.75
67341;BME280;54227;45.198;5.732;2022-07-23T02:38:50;99128.47;;;27.55;40.57
67341;BME280;54227;45.198;5.732;2022-07-23T02:41:16;99129.28;;;27.56;40.32
67341;BME280;54227;45.198;5.732;2022-07-23T02:43:41;99124.88;;;27.55;41.09
67341;BME280;54227;45.198;5.732;2022-07-23T02:46:07;99138.22;;;27.51;41.39
67341;BME280;54227;45.198;5.732;2022-07-23T02:48:33;99132.06;;;27.56;40.80
67341;BME280;54227;45.198;5.732;2022-07-23T02:50:58;99140.03;;;27.61;40.85
67341;BME280;54227;45.198;5.732;2022-07-23T02:53:24;99139.28;;;27.57;40.75
67341;BME280;54227;45.198;5.732;2022-07-23T02:55:49;99141.72;;;27.55;41.67
67341;BME280;54227;45.198;5.732;2022-07-23T02:58:14;99142.53;;;27.55;41.11
67341;BME280;54227;45.198;5.732;2022-07-23T03:00:40;99136.84;;;27.59;40.69
67341;BME280;54227;45.198;5.732;2022-07-23T03:03:06;99132.06;;;27.56;41.33
67341;BME280;54227;45.198;5.732;2022-07-23T03:05:32;99143.44;;;27.49;41.84
67341;BME280;54227;45.198;5.732;2022-07-23T03:07:58;99149.44;;;27.51;41.31
67341;BME280;54227;45.198;5.732;2022-07-23T03:10:23;99158.94;;;27.57;40.94
67341;BME280;54227;45.198;5.732;2022-07-23T03:12:49;99181.06;;;27.55;41.41
67341;BME280;54227;45.198;5.732;2022-07-23T03:15:14;99177.09;;;27.52;41.61
67341;BME280;54227;45.198;5.732;2022-07-23T03:17:39;99179.47;;;27.54;41.24
67341;BME280;54227;45.198;5.732;2022-07-23T03:20:05;99166.72;;;27.49;40.24
67341;BME280;54227;45.198;5.732;2022-07-23T03:22:31;99163.41;;;27.54;41.81
67341;BME280;54227;45.198;5.732;2022-07-23T03:24:56;99166.66;;;27.53;41.43
67341;BME280;54227;45.198;5.732;2022-07-23T03:27:23;99163.78;;;27.56;41.31
67341;BME280;54227;45.198;5.732;2022-07-23T03:29:50;99170.19;;;27.57;40.09
67341;BME280;54227;45.198;5.732;2022-07-23T03:32:16;99156.94;;;27.57;42.02
67341;BME280;54227;45.198;5.732;2022-07-23T03:34:41;99158.16;;;27.56;41.28
67341;BME280;54227;45.198;5.732;2022-07-23T03:37:07;99161.72;;;27.60;41.21
67341;BME280;54227;45.198;5.732;2022-07-23T03:39:32;99158.94;;;27.57;40.01
67341;BME280;54227;45.198;5.732;2022-07-23T03:41:57;99151.38;;;27.54;42.05
67341;BME280;54227;45.198;5.732;2022-07-23T03:44:23;99158.22;;;27.53;41.45
67341;BME280;54227;45.198;5.732;2022-07-23T03:46:48;99157.75;;;27.58;41.49
67341;BME280;54227;45.198;5.732;2022-07-23T03:49:14;99160.91;;;27.60;40.31
67341;BME280;54227;45.198;5.732;2022-07-23T03:51:39;99152.94;;;27.58;41.61
67341;BME280;54227;45.198;5.732;2022-07-23T03:54:05;99150.16;;;27.55;41.95
67341;BME280;54227;45.198;5.732;2022-07-23T03:56:30;99162.63;;;27.54;41.58
67341;BME280;54227;45.198;5.732;2022-07-23T03:58:56;99158.59;;;27.55;40.98
67341;BME280;54227;45.198;5.732;2022-07-23T04:01:21;99161.75;;;27.57;41.50
67341;BME280;54227;45.198;5.732;2022-07-23T04:03:47;99152.63;;;27.53;41.96
67341;BME280;54227;45.198;5.732;2022-07-23T04:06:13;99162.63;;;27.54;41.45
67341;BME280;54227;45.198;5.732;2022-07-23T04:08:38;99173.00;;;27.57;41.23
67341;BME280;54227;45.198;5.732;2022-07-23T04:11:03;99189.84;;;27.57;41.29
67341;BME280;54227;45.198;5.732;2022-07-23T04:13:29;99208.06;;;27.49;42.38
67341;BME280;54227;45.198;5.732;2022-07-23T04:15:54;99216.44;;;27.52;41.57
67341;BME280;54227;45.198;5.732;2022-07-23T04:18:20;99213.13;;;27.57;41.18
67341;BME280;54227;45.198;5.732;2022-07-23T04:20:47;99228.03;;;27.54;41.18
67341;BME280;54227;45.198;5.732;2022-07-23T04:23:13;99236.91;;;27.53;42.32
67341;BME280;54227;45.198;5.732;2022-07-23T04:25:38;99229.31;;;27.50;41.69
67341;BME280;54227;45.198;5.732;2022-07-23T04:28:04;99240.50;;;27.53;41.75
67341;BME280;54227;45.198;5.732;2022-07-23T04:30:29;99241.28;;;27.54;41.77
67341;BME280;54227;45.198;5.732;2022-07-23T04:32:55;99244.91;;;27.54;42.62
67341;BME280;54227;45.198;5.732;2022-07-23T04:35:20;99240.50;;;27.53;42.31
67341;BME280;54227;45.198;5.732;2022-07-23T04:37:46;99244.47;;;27.56;41.86
67341;BME280;54227;45.198;5.732;2022-07-23T04:40:12;99241.28;;;27.54;42.06
67341;BME280;54227;45.198;5.732;2022-07-23T04:42:37;99241.34;;;27.50;43.01
67341;BME280;54227;45.198;5.732;2022-07-23T04:45:03;99261.00;;;27.50;42.59
67341;BME280;54227;45.198;5.732;2022-07-23T04:47:30;99275.75;;;27.58;42.32
67341;BME280;54227;45.198;5.732;2022-07-23T04:49:56;99283.81;;;27.56;41.99
67341;BME280;54227;45.198;5.732;2022-07-23T04:52:22;99275.38;;;27.56;43.00
67341;BME280;54227;45.198;5.732;2022-07-23T04:54:47;99274.16;;;27.57;42.70
67341;BME280;54227;45.198;5.732;2022-07-23T04:57:13;99275.75;;;27.58;42.28
67341;BME280;54227;45.198;5.732;2022-07-23T04:59:38;99283.44;;;27.54;42.05
67341;BME280;54227;45.198;5.732;2022-07-23T05:02:03;99292.72;;;27.51;43.41
67341;BME280;54227;45.198;5.732;2022-07-23T05:04:29;99289.16;;;27.47;43.38
67341;BME280;54227;45.198;5.732;2022-07-23T05:06:56;99297.13;;;27.52;43.12
67341;BME280;54227;45.198;5.732;2022-07-23T05:09:22;99303.09;;;27.54;41.50
67341;BME280;54227;45.198;5.732;2022-07-23T05:11:47;99307.97;;;27.50;44.26
67341;BME280;54227;45.198;5.732;2022-07-23T05:14:12;99306.38;;;27.49;44.21
67341;BME280;54227;45.198;5.732;2022-07-23T05:16:38;99290.72;;;27.51;44.25
67341;BME280;54227;45.198;5.732;2022-07-23T05:19:04;99265.03;;;27.49;42.96
67341;BME280;54227;45.198;5.732;2022-07-23T05:21:29;99249.28;;;27.55;44.66
67341;BME280;54227;45.198;5.732;2022-07-23T05:23:54;99255.03;;;27.48;45.22
67341;BME280;54227;45.198;5.732;2022-07-23T05:26:20;99261.84;;;27.47;45.45
67341;BME280;54227;45.198;5.732;2022-07-23T05:28:45;99262.19;;;27.53;44.60
67341;BME280;54227;45.198;5.732;2022-07-23T05:31:11;99263.00;;;27.50;45.41
67341;BME280;54227;45.198;5.732;2022-07-23T05:33:36;99265.09;;;27.46;46.67
67341;BME280;54227;45.198;5.732;2022-07-23T05:36:02;99274.75;;;27.45;47.30
67341;BME280;54227;45.198;5.732;2022-07-23T05:38:28;99262.22;;;27.49;47.12
67341;BME280;54227;45.198;5.732;2022-07-23T05:40:53;99216.91;;;27.47;45.26
67341;BME280;54227;45.198;5.732;2022-07-23T05:43:19;99170.81;;;27.45;47.66
67341;BME280;54227;45.198;5.732;2022-07-23T05:45:44;99190.09;;;27.42;48.33
67341;BME280;54227;45.198;5.732;2022-07-23T05:48:10;99244.56;;;27.49;48.21
67341;BME280;54227;45.198;5.732;2022-07-23T05:50:35;99271.03;;;27.51;48.07
67341;BME280;54227;45.198;5.732;2022-07-23T05:53:01;99263.69;;;27.57;47.16
67341;BME280;54227;45.198;5.732;2022-07-23T05:55:27;99248.25;;;27.46;47.38
67341;BME280;54227;45.198;5.732;2022-07-23T05:57:55;99238.34;;;27.37;47.71
67341;BME280;54227;45.198;5.732;2022-07-23T06:00:21;99232.75;;;27.34;48.18
67341;BME280;54227;45.198;5.732;2022-07-23T06:02:46;99230.59;;;27.45;48.35
67341;BME280;54227;45.198;5.732;2022-07-23T06:05:12;99230.50;;;27.52;48.33
67341;BME280;54227;45.198;5.732;2022-07-23T06:07:37;99231.53;;;27.62;48.03
67341;BME280;54227;45.198;5.732;2022-07-23T06:10:03;99217.72;;;27.75;48.04
67341;BME280;54227;45.198;5.732;2022-07-23T06:12:29;99216.44;;;27.79;47.88
67341;BME280;54227;45.198;5.732;2022-07-23T06:14:55;99221.50;;;27.88;47.57
67341;BME280;54227;45.198;5.732;2022-07-23T06:17:21;99216.53;;;27.95;47.44
67341;BME280;54227;45.198;5.732;2022-07-23T06:19:46;99219.72;;;27.97;47.49
67341;BME280;54227;45.198;5.732;2022-07-23T06:22:12;99227.66;;;28.03;47.45
67341;BME280;54227;45.198;5.732;2022-07-23T06:24:37;99227.19;;;28.08;47.40
67341;BME280;54227;45.198;5.732;2022-07-23T06:27:03;99215.84;;;28.11;47.43
67341;BME280;54227;45.198;5.732;2022-07-23T06:29:29;99207.38;;;28.15;47.29
67341;BME280;54227;45.198;5.732;2022-07-23T06:31:54;99199.72;;;28.15;47.37
67341;BME280;54227;45.198;5.732;2022-07-23T06:34:19;99197.19;;;28.21;47.30
67341;BME280;54227;45.198;5.732;2022-07-23T06:36:45;99201.59;;;28.22;47.49
67341;BME280;54227;45.198;5.732;2022-07-23T06:39:10;99197.47;;;28.27;47.54
67341;BME280;54227;45.198;5.732;2022-07-23T06:41:36;99205.56;;;28.24;47.34
67341;BME280;54227;45.198;5.732;2022-07-23T06:44:01;99207.88;;;28.30;47.25
67341;BME280;54227;45.198;5.732;2022-07-23T06:46:27;99216.72;;;28.32;47.24
67341;BME280;54227;45.198;5.732;2022-07-23T06:48:52;99215.44;;;28.36;47.43
67341;BME280;54227;45.198;5.732;2022-07-23T06:51:17;99213.81;;;28.35;47.31
67341;BME280;54227;45.198;5.732;2022-07-23T06:53:44;99210.22;;;28.35;47.39
67341;BME280;54227;45.198;5.732;2022-07-23T06:56:09;99209.06;;;28.32;47.64
67341;BME280;54227;45.198;5.732;2022-07-23T06:58:34;99220.66;;;28.34;47.64
67341;BME280;54227;45.198;5.732;2022-07-23T07:01:00;99233.50;;;28.35;47.58
67341;BME280;54227;45.198;5.732;2022-07-23T07:03:25;99236.28;;;28.39;47.40
67341;BME280;54227;45.198;5.732;2022-07-23T07:05:51;99234.16;;;28.43;47.49
67341;BME280;54227;45.198;5.732;2022-07-23T07:08:17;99230.94;;;28.44;47.61
67341;BME280;54227;45.198;5.732;2022-07-23T07:10:43;99232.53;;;28.45;47.64
67341;BME280;54227;45.198;5.732;2022-07-23T07:13:09;99238.16;;;28.45;47.71
67341;BME280;54227;45.198;5.732;2022-07-23T07:15:36;99233.38;;;28.42;47.87
67341;BME280;54227;45.198;5.732;2022-07-23T07:18:02;99231.44;;;28.39;47.71
67341;BME280;54227;45.198;5.732;2022-07-23T07:20:28;99234.97;;;28.43;48.02
67341;BME280;54227;45.198;5.732;2022-07-23T07:22:53;99239.78;;;28.43;47.91
67341;BME280;54227;45.198;5.732;2022-07-23T07:25:18;99240.59;;;28.43;47.87
67341;BME280;54227;45.198;5.732;2022-07-23T07:27:44;99244.13;;;28.47;47.95
67341;BME280;54227;45.198;5.732;2022-07-23T07:30:10;99240.53;;;28.47;47.73
67341;BME280;54227;45.198;5.732;2022-07-23T07:32:36;99244.47;;;28.49;47.74
67341;BME280;54227;45.198;5.732;2022-07-23T07:35:03;99247.38;;;28.46;47.86
67341;BME280;54227;45.198;5.732;2022-07-23T07:37:29;99246.16;;;28.47;47.46
67341;BME280;54227;45.198;5.732;2022-07-23T07:39:54;99266.19;;;28.49;47.43
67341;BME280;54227;45.198;5.732;2022-07-23T07:42:20;99270.19;;;28.51;47.50
67341;BME280;54227;45.198;5.732;2022-07-23T07:44:46;99270.19;;;28.51;47.38
67341;BME280;54227;45.198;5.732;2022-07-23T07:47:11;99262.53;;;28.52;47.50
67341;BME280;54227;45.198;5.732;2022-07-23T07:49:37;99268.16;;;28.52;47.35
67341;BME280;54227;45.198;5.732;2022-07-23T07:52:02;99264.56;;;28.51;47.14
67341;BME280;54227;45.198;5.732;2022-07-23T07:54:28;99266.06;;;28.56;47.32
67341;BME280;54227;45.198;5.732;2022-07-23T07:56:54;99265.72;;;28.54;47.16
67341;BME280;54227;45.198;5.732;2022-07-23T07:59:19;99262.09;;;28.54;47.16
67341;BME280;54227;45.198;5.732;2022-07-23T08:01:44;99274.25;;;28.50;47.29
67341;BME280;54227;45.198;5.732;2022-07-23T08:04:10;99260.88;;;28.55;47.25
67341;BME280;54227;45.198;5.732;2022-07-23T08:06:35;99267.28;;;28.55;47.20
67341;BME280;54227;45.198;5.732;2022-07-23T08:09:01;99259.72;;;28.52;46.94
67341;BME280;54227;45.198;5.732;2022-07-23T08:11:26;99263.34;;;28.52;46.97
67341;BME280;54227;45.198;5.732;2022-07-23T08:13:52;99268.88;;;28.56;46.95
67341;BME280;54227;45.198;5.732;2022-07-23T08:16:17;99266.50;;;28.55;47.04
67341;BME280;54227;45.198;5.732;2022-07-23T08:18:43;99271.34;;;28.54;46.80
67341;BME280;54227;45.198;5.732;2022-07-23T08:21:08;99275.75;;;28.55;46.75
67341;BME280;54227;45.198;5.732;2022-07-23T08:23:34;99263.69;;;28.55;46.82
67341;BME280;54227;45.198;5.732;2022-07-23T08:26:00;99270.91;;;28.56;46.81
67341;BME280;54227;45.198;5.732;2022-07-23T08:28:26;99262.09;;;28.54;46.70
67341;BME280;54227;45.198;5.732;2022-07-23T08:30:52;99268.47;;;28.58;46.50
67341;BME280;54227;45.198;5.732;2022-07-23T08:33:18;99269.66;;;28.57;46.50
67341;BME280;54227;45.198;5.732;2022-07-23T08:35:48;99274.00;;;28.61;46.40
67341;BME280;54227;45.198;5.732;2022-07-23T08:38:17;99270.75;;;28.63;46.38
67341;BME280;54227;45.198;5.732;2022-07-23T08:40:45;99269.97;;;28.62;46.31
67341;BME280;54227;45.198;5.732;2022-07-23T08:43:13;99261.97;;;28.61;46.23
67341;BME280;54227;45.198;5.732;2022-07-23T08:45:41;99266.38;;;28.62;46.28
67341;BME280;54227;45.198;5.732;2022-07-23T08:48:12;99265.56;;;28.61;46.09
67341;BME280;54227;45.198;5.732;2022-07-23T08:50:42;99265.56;;;28.61;46.15
67341;BME280;54227;45.198;5.732;2022-07-23T08:53:08;99266.72;;;28.64;45.95
67341;BME280;54227;45.198;5.732;2022-07-23T08:55:34;99269.19;;;28.62;45.78
67341;BME280;54227;45.198;5.732;2022-07-23T08:57:59;99261.53;;;28.62;46.14
67341;BME280;54227;45.198;5.732;2022-07-23T09:00:25;99256.34;;;28.61;45.90
67341;BME280;54227;45.198;5.732;2022-07-23T09:02:51;99258.81;;;28.59;45.16
67341;BME280;54227;45.198;5.732;2022-07-23T09:05:17;99260.09;;;28.54;45.24
67341;BME280;54227;45.198;5.732;2022-07-23T09:10:46;99261.28;;;28.33;46.87
67341;BME280;54227;45.198;5.732;2022-07-23T09:18:47;99259.56;;;28.39;46.30
67341;BME280;54227;45.198;5.732;2022-07-23T09:21:21;99261.50;;;28.42;46.34
67341;BME280;54227;45.198;5.732;2022-07-23T09:23:51;99262.25;;;28.46;46.13
67341;BME280;54227;45.198;5.732;2022-07-23T09:27:00;99260.16;;;28.50;46.05
67341;BME280;54227;45.198;5.732;2022-07-23T09:34:26;99253.53;;;28.61;45.63
67341;BME280;54227;45.198;5.732;2022-07-23T09:37:09;99251.59;;;28.58;45.76
67341;BME280;54227;45.198;5.732;2022-07-23T09:39:35;99248.03;;;28.54;45.86
67341;BME280;54227;45.198;5.732;2022-07-23T09:44:47;99246.75;;;28.58;45.50
67341;BME280;54227;45.198;5.732;2022-07-23T09:47:14;99254.41;;;28.58;45.58
67341;BME280;54227;45.198;5.732;2022-07-23T09:49:40;99248.78;;;28.58;45.29
67341;BME280;54227;45.198;5.732;2022-07-23T09:52:05;99246.75;;;28.58;45.55
67341;BME280;54227;45.198;5.732;2022-07-23T09:54:33;99257.13;;;28.61;45.29
67341;BME280;54227;45.198;5.732;2022-07-23T09:57:11;99259.50;;;28.63;45.35
67341;BME280;54227;45.198;5.732;2022-07-23T09:59:43;99252.66;;;28.64;45.25
67341;BME280;54227;45.198;5.732;2022-07-23T10:02:10;99253.38;;;28.68;45.26
67341;BME280;54227;45.198;5.732;2022-07-23T10:04:38;99243.00;;;28.65;45.38
67341;BME280;54227;45.198;5.732;2022-07-23T10:07:06;99241.69;;;28.69;45.20
67341;BME280;54227;45.198;5.732;2022-07-23T10:09:37;99242.56;;;28.66;45.38
67341;BME280;54227;45.198;5.732;2022-07-23T10:12:05;99238.66;;;28.60;44.36
67341;BME280;54227;45.198;5.732;2022-07-23T10:14:31;99239.94;;;28.56;45.24
67341;BME280;54227;45.198;5.732;2022-07-23T10:16:58;99232.53;;;28.45;45.92
67341;BME280;54227;45.198;5.732;2022-07-23T10:19:24;99236.97;;;28.43;45.88
67341;BME280;54227;45.198;5.732;2022-07-23T10:21:53;99233.38;;;28.42;45.82
67341;BME280;54227;45.198;5.732;2022-07-23T10:38:24;99236.84;;;28.30;46.01
67341;BME280;54227;45.198;5.732;2022-07-23T10:41:02;99218.34;;;28.29;45.73
67341;BME280;54227;45.198;5.732;2022-07-23T10:43:29;99224.72;;;28.33;45.55
67341;BME280;54227;45.198;5.732;2022-07-23T10:45:55;99221.91;;;28.33;45.49
67341;BME280;54227;45.198;5.732;2022-07-23T10:48:23;99224.56;;;28.40;45.25
67341;BME280;54227;45.198;5.732;2022-07-23T10:59:21;99224.78;;;28.49;44.59
67341;BME280;54227;45.198;5.732;2022-07-23T11:01:46;99223.59;;;28.50;44.68
67341;BME280;54227;45.198;5.732;2022-07-23T11:04:12;99213.91;;;28.51;44.43
67341;BME280;54227;45.198;5.732;2022-07-23T11:09:28;99214.63;;;28.56;44.20
67341;BME280;54227;45.198;5.732;2022-07-23T11:14:59;99221.03;;;28.56;44.35
67341;BME280;54227;45.198;5.732;2022-07-23T11:17:25;99212.19;;;28.58;44.14
67341;BME280;54227;45.198;5.732;2022-07-23T11:22:36;99209.72;;;28.60;44.18
67341;BME280;54227;45.198;5.732;2022-07-23T11:25:02;99202.50;;;28.59;43.95
67341;BME280;54227;45.198;5.732;2022-07-23T11:27:41;99205.69;;;28.61;44.23
67341;BME280;54227;45.198;5.732;2022-07-23T11:30:08;99205.69;;;28.61;43.42
67341;BME280;54227;45.198;5.732;2022-07-23T11:32:40;99200.25;;;28.50;44.06
67341;BME280;54227;45.198;5.732;2022-07-23T11:35:23;99205.19;;;28.46;44.90
67341;BME280;54227;45.198;5.732;2022-07-23T11:37:52;99195.22;;;28.41;44.58
67341;BME280;54227;45.198;5.732;2022-07-23T11:40:24;99199.59;;;28.42;44.58
67341;BME280;54227;45.198;5.732;2022-07-23T11:45:24;99189.09;;;28.46;43.74
67341;BME280;54227;45.198;5.732;2022-07-23T11:47:49;99190.66;;;28.47;45.62
67341;BME280;54227;45.198;5.732;2022-07-23T11:50:15;99187.50;;;28.45;45.77
67341;BME280;54227;45.198;5.732;2022-07-23T11:52:41;99181.09;;;28.45;45.30
67341;BME280;54227;45.198;5.732;2022-07-23T11:55:10;99192.63;;;28.50;45.18
67341;BME280;54227;45.198;5.732;2022-07-23T11:57:39;99168.75;;;28.59;44.17
67341;BME280;54227;45.198;5.732;2022-07-23T12:00:08;99175.81;;;28.47;44.29
67341;BME280;54227;45.198;5.732;2022-07-23T12:02:38;99172.69;;;28.41;45.20
67341;BME280;54227;45.198;5.732;2022-07-23T12:05:05;99176.41;;;28.38;45.60
67341;BME280;54227;45.198;5.732;2022-07-23T12:07:33;99173.22;;;28.36;45.36
67341;BME280;54227;45.198;5.732;2022-07-23T12:10:20;99177.09;;;28.42;45.09
67341;BME280;54227;45.198;5.732;2022-07-23T12:12:49;99168.91;;;28.51;44.90
67341;BME280;54227;45.198;5.732;2022-07-23T12:15:19;99172.41;;;28.56;44.68
67341;BME280;54227;45.198;5.732;2022-07-23T12:17:46;99168.22;;;28.64;44.46
67341;BME280;54227;45.198;5.732;2022-07-23T12:20:19;99179.41;;;28.67;44.17
67341;BME280;54227;45.198;5.732;2022-07-23T12:22:49;99157.50;;;28.59;42.95
67341;BME280;54227;45.198;5.732;2022-07-23T12:25:18;99157.63;;;28.51;44.28
67341;BME280;54227;45.198;5.732;2022-07-23T12:27:44;99171.31;;;28.49;44.99
67341;BME280;54227;45.198;5.732;2022-07-23T12:30:27;99166.94;;;28.48;45.45
67341;BME280;54227;45.198;5.732;2022-07-23T12:32:54;99160.81;;;28.54;45.17
67341;BME280;54227;45.198;5.732;2022-07-23T12:35:21;99154.22;;;28.60;44.38
67341;BME280;54227;45.198;5.732;2022-07-23T12:37:49;99157.19;;;28.53;43.56
67341;BME280;54227;45.198;5.732;2022-07-23T12:43:00;99160.94;;;28.46;45.11
67341;BME280;54227;45.198;5.732;2022-07-23T12:45:26;99146.44;;;28.48;45.08
67341;BME280;54227;45.198;5.732;2022-07-23T12:48:04;99159.38;;;28.45;45.23
67341;BME280;54227;45.198;5.732;2022-07-23T12:50:42;99158.88;;;28.50;44.82
67341;BME280;54227;45.198;5.732;2022-07-23T12:53:11;99154.75;;;28.55;44.75
67341;BME280;54227;45.198;5.732;2022-07-23T12:55:37;99150.69;;;28.56;44.51
67341;BME280;54227;45.198;5.732;2022-07-23T12:58:12;99139.72;;;28.62;44.56
67341;BME280;54227;45.198;5.732;2022-07-23T13:00:58;99142.25;;;28.56;42.92
67341;BME280;54227;45.198;5.732;2022-07-23T13:03:30;99134.34;;;28.51;44.70
67341;BME280;54227;45.198;5.732;2022-07-23T13:05:57;99137.50;;;28.53;45.00
67341;BME280;54227;45.198;5.732;2022-07-23T13:08:23;99116.50;;;28.58;44.83
67341;BME280;54227;45.198;5.732;2022-07-23T13:10:49;99139.72;;;28.62;44.83
67341;BME280;54227;45.198;5.732;2022-07-23T13:13:19;99115.28;;;28.59;43.89
67341;BME280;54227;45.198;5.732;2022-07-23T13:15:45;99129.84;;;28.54;44.11
67341;BME280;54227;45.198;5.732;2022-07-23T13:18:11;99126.75;;;28.48;45.49
67341;BME280;54227;45.198;5.732;2022-07-23T13:20:36;99140.38;;;28.49;46.08
67341;BME280;54227;45.198;5.732;2022-07-23T13:23:04;99127.91;;;28.50;45.40
67341;BME280;54227;45.198;5.732;2022-07-23T13:25:30;99132.94;;;28.59;45.53
67341;BME280;54227;45.198;5.732;2022-07-23T13:27:55;99144.22;;;28.59;43.78
67341;BME280;54227;45.198;5.732;2022-07-23T13:30:21;99125.91;;;28.51;43.81
67341;BME280;54227;45.198;5.732;2022-07-23T13:32:47;99132.38;;;28.48;45.02
67341;BME280;54227;45.198;5.732;2022-07-23T13:35:13;99140.47;;;28.46;45.48
67341;BME280;54227;45.198;5.732;2022-07-23T13:37:38;99145.31;;;28.45;45.73
67341;BME280;54227;45.198;5.732;2022-07-23T13:40:05;99141.53;;;28.52;45.27
67341;BME280;54227;45.198;5.732;2022-07-23T13:42:30;99140.03;;;28.47;44.31
67341;BME280;54227;45.198;5.732;2022-07-23T13:44:56;99148.13;;;28.45;44.27
67341;BME280;54227;45.198;5.732;2022-07-23T13:47:21;99130.50;;;28.41;45.18
67341;BME280;54227;45.198;5.732;2022-07-23T13:49:46;99137.81;;;28.39;45.62